Time;durP1;ratioP1;P1;durP2;ratioP2;P2;SDS_P1;SDS_P2;PMS_P1;PMS_P2;Temp;Humidity;BMP_temperature;BMP_pressure;BME280_temperature;BME280_humidity;BME280_pressure;Samples;Min_cycle;Max_cycle;Signal;HPM_P1;HPM_P2
2020/12/09 00:07:04;;;;;;;63.77;27.00;;;;;;;-1.10;84.31;98260.48;515301;1095;104580;-41
2020/12/09 00:17:09;;;;;;;55.70;26.63;;;;;;;-1.15;84.16;98267.96;515410;1095;104551;-40
2020/12/09 00:27:14;;;;;;;65.20;29.10;;;;;;;-1.18;83.79;98266.51;515431;1095;104568;-40
2020/12/09 00:37:19;;;;;;;56.60;28.33;;;;;;;-1.20;84.26;98273.62;515312;1095;104580;-41
2020/12/09 00:47:29;;;;;;;64.63;30.67;;;;;;;-1.19;84.67;98279.61;515147;1095;104593;-39
2020/12/09 00:57:35;;;;;;;60.90;29.27;;;;;;;-1.15;84.82;98291.31;515624;1095;104531;-41
2020/12/09 01:07:40;;;;;;;59.10;29.30;;;;;;;-1.10;84.13;98276.87;515388;1095;104615;-40
2020/12/09 01:17:45;;;;;;;65.43;29.57;;;;;;;-1.07;84.82;98284.32;515565;1095;104503;-41
2020/12/09 01:27:50;;;;;;;54.03;27.60;;;;;;;-1.04;84.15;98273.61;515242;1095;104595;-39
2020/12/09 01:37:55;;;;;;;61.13;27.83;;;;;;;-1.01;84.23;98267.27;515436;1095;104938;-41
2020/12/09 01:48:01;;;;;;;58.97;27.70;;;;;;;-0.99;84.45;98266.13;515328;1095;104580;-42
2020/12/09 01:58:06;;;;;;;51.60;26.73;;;;;;;-0.95;84.31;98287.37;515541;1095;104506;-40
2020/12/09 02:08:11;;;;;;;56.70;25.87;;;;;;;-0.95;84.19;98287.37;515271;1095;104618;-40
2020/12/09 02:18:16;;;;;;;55.37;25.90;;;;;;;-0.91;84.32;98275.70;515375;1095;104922;-40
2020/12/09 02:28:21;;;;;;;59.30;28.47;;;;;;;-0.89;84.00;98278.95;515274;1095;104631;-39
2020/12/09 02:38:26;;;;;;;47.50;25.67;;;;;;;-0.84;84.25;98274.06;516205;1091;104977;-41
2020/12/09 02:48:31;;;;;;;60.50;27.80;;;;;;;-0.80;84.00;98270.16;515227;1095;105666;-40
2020/12/09 02:58:36;;;;;;;54.30;25.90;;;;;;;-0.82;84.61;98255.72;515445;1095;104517;-40
2020/12/09 03:08:41;;;;;;;43.10;23.27;;;;;;;-0.88;84.33;98257.20;515341;1095;106118;-41
2020/12/09 03:18:48;;;;;;;52.33;24.47;;;;;;;-0.95;84.77;98257.06;515345;1095;104708;-40
2020/12/09 03:28:52;;;;;;;46.95;22.35;;;;;;;-1.04;84.18;98246.85;515194;1095;104573;-41
2020/12/09 03:38:56;;;;;;;50.17;24.40;;;;;;;-1.08;84.98;98269.73;515400;1095;106095;-40
2020/12/09 03:49:01;;;;;;;42.70;20.93;;;;;;;-1.14;84.72;98241.04;515422;1095;104960;-41
2020/12/09 03:59:06;;;;;;;42.90;21.73;;;;;;;-1.27;85.09;98241.53;515380;1095;104580;-40
2020/12/09 04:09:11;;;;;;;45.17;23.13;;;;;;;-1.29;85.26;98243.48;515256;1095;104659;-42
2020/12/09 04:19:16;;;;;;;49.70;23.10;;;;;;;-1.39;85.05;98237.67;515223;1095;104573;-39
2020/12/09 04:29:20;;;;;;;53.23;24.83;;;;;;;-1.45;85.49;98223.55;515362;1095;104698;-40
2020/12/09 04:39:25;;;;;;;47.00;22.97;;;;;;;-1.55;85.02;98225.51;515184;1095;104580;-40
2020/12/09 04:49:38;;;;;;;40.33;22.27;;;;;;;-1.57;85.05;98225.67;515353;1095;104622;-40
2020/12/09 04:59:50;;;;;;;44.27;21.33;;;;;;;-1.56;85.80;98248.03;515333;1095;104631;-42
2020/12/09 05:09:59;;;;;;;42.30;21.15;;;;;;;-1.53;85.06;98259.86;515406;1095;104599;-40
2020/12/09 05:20:05;;;;;;;38.30;19.20;;;;;;;-1.59;85.17;98240.59;515419;1095;104533;-40
2020/12/09 05:30:10;;;;;;;40.83;21.80;;;;;;;-1.59;85.62;98239.77;515537;1095;105867;-40
2020/12/09 05:40:28;;;;;;;36.40;20.75;;;;;;;-1.63;86.25;98236.70;515236;1095;104554;-39
2020/12/09 06:01:13;;;;;;;44.20;22.00;;;;;;;-1.57;85.80;98240.42;515295;1095;104583;-43
2020/12/09 06:11:20;;;;;;;44.07;22.03;;;;;;;-1.51;86.00;98265.69;515404;1095;104846;-40
2020/12/09 06:21:24;;;;;;;44.43;22.37;;;;;;;-1.48;86.15;98274.92;515448;1095;105082;-41
2020/12/09 06:42:06;;;;;;;44.67;20.75;;;;;;;-1.45;86.09;98298.75;515214;1095;104592;-40
2020/12/09 06:52:33;;;;;;;43.20;22.07;;;;;;;-1.40;86.07;98309.47;515240;1095;104611;-42
2020/12/09 07:13:05;;;;;;;100.90;36.30;;;;;;;-1.31;85.67;98323.24;515427;1095;104990;-41
2020/12/09 07:23:12;;;;;;;61.47;30.97;;;;;;;-1.34;85.60;98323.57;515475;1095;104963;-40
2020/12/09 07:33:17;;;;;;;61.27;28.23;;;;;;;-1.31;86.06;98323.24;515275;1095;104628;-39
2020/12/09 07:43:21;;;;;;;51.77;26.90;;;;;;;-1.33;85.63;98328.59;515378;1095;104500;-41
2020/12/09 07:53:27;;;;;;;58.17;27.23;;;;;;;-1.44;85.64;98341.86;515368;1095;104586;-40
2020/12/09 08:03:35;;;;;;;46.10;22.57;;;;;;;-1.46;85.58;98343.80;515237;1095;106152;-42
2020/12/09 08:13:40;;;;;;;46.57;23.97;;;;;;;-1.56;85.78;98345.75;515301;1095;104576;-41
2020/12/09 08:23:46;;;;;;;60.50;25.30;;;;;;;-1.62;85.48;98359.36;515394;1095;104641;-40
2020/12/09 08:33:58;;;;;;;44.00;23.00;;;;;;;-1.65;85.37;98360.48;515397;1095;104919;-43
2020/12/09 08:44:03;;;;;;;;;;;;;;;-1.68;85.52;98378.92;515471;1095;104919;-42
2020/12/09 08:54:10;;;;;;;45.63;22.33;;;;;;;-1.71;85.64;98381.02;515462;1095;104583;-40
2020/12/09 09:04:16;;;;;;;58.90;25.30;;;;;;;-1.75;86.22;98380.53;515437;1095;104514;-40
2020/12/09 09:14:21;;;;;;;53.50;28.03;;;;;;;-1.72;85.68;98381.99;515504;1095;104702;-41
2020/12/09 09:24:26;;;;;;;53.63;26.27;;;;;;;-1.76;86.08;98384.09;515516;1095;104855;-42
2020/12/09 09:34:30;;;;;;;51.83;25.27;;;;;;;-1.77;86.04;98395.43;515526;1095;104577;-41
2020/12/09 09:44:35;;;;;;;56.87;27.83;;;;;;;-1.77;86.10;98390.25;515176;1095;104628;-41
2020/12/09 09:54:54;;;;;;;63.63;29.57;;;;;;;-1.74;85.44;98378.75;515430;1095;104580;-41
2020/12/09 10:04:59;;;;;;;67.27;27.47;;;;;;;-1.66;85.86;98365.80;515406;1095;104611;-39
2020/12/09 10:15:04;;;;;;;64.17;29.23;;;;;;;-1.55;85.47;98371.52;515402;1094;104529;-43
2020/12/09 10:25:09;;;;;;;65.57;30.40;;;;;;;-1.53;85.52;98350.61;515402;1095;104939;-40
2020/12/09 10:35:15;;;;;;;71.13;31.73;;;;;;;-1.62;85.49;98342.02;515379;1095;104584;-42
2020/12/09 10:45:19;;;;;;;58.93;27.10;;;;;;;-1.67;86.02;98356.41;515262;1095;105021;-42
2020/12/09 10:55:24;;;;;;;56.60;25.47;;;;;;;-1.59;85.83;98335.70;515512;1095;104580;-43
2020/12/09 11:05:29;;;;;;;48.20;24.43;;;;;;;-1.62;85.91;98331.65;515328;1095;104949;-40
2020/12/09 11:15:34;;;;;;;49.00;24.97;;;;;;;-1.58;86.04;98324.36;515232;1095;104595;-43
2020/12/09 11:25:39;;;;;;;48.07;23.47;;;;;;;-1.64;86.34;98331.00;515459;1095;104697;-41
2020/12/09 11:35:44;;;;;;;46.90;23.80;;;;;;;-1.69;86.04;98309.91;515523;1095;104545;-40
2020/12/09 11:45:48;;;;;;;46.90;25.30;;;;;;;-1.69;86.39;98298.73;515391;1095;104641;-39
2020/12/09 11:55:54;;;;;;;49.57;23.37;;;;;;;-1.73;86.23;98313.79;515199;1095;104576;-41
2020/12/09 12:05:58;;;;;;;52.20;25.23;;;;;;;-1.68;86.32;98300.34;515401;1095;106327;-40
2020/12/09 12:16:04;;;;;;;54.97;25.67;;;;;;;-1.65;85.91;98300.86;515509;1095;104864;-42
2020/12/09 12:26:07;;;;;;;58.57;25.03;;;;;;;-1.67;85.87;98289.00;515254;1095;104560;-43
2020/12/09 12:36:13;;;;;;;52.63;25.90;;;;;;;-1.73;85.86;98293.05;515468;1095;104596;-41
2020/12/09 12:56:39;;;;;;;51.60;25.53;;;;;;;-1.82;86.20;98301.80;515539;1095;104557;-41
2020/12/09 13:06:44;;;;;;;49.47;22.90;;;;;;;-1.86;86.19;98306.48;515412;1095;104965;-42
2020/12/09 13:16:50;;;;;;;56.40;24.13;;;;;;;-1.82;86.82;98319.13;515523;1095;104579;-40
2020/12/09 13:26:55;;;;;;;45.73;23.53;;;;;;;-1.81;86.72;98303.42;515601;1095;104932;-41
2020/12/09 13:37:02;;;;;;;48.00;24.03;;;;;;;-1.87;86.06;98307.46;515200;1095;104497;-41
2020/12/09 13:47:07;;;;;;;47.43;23.73;;;;;;;-1.88;86.83;98297.26;515311;1095;104647;-40
2020/12/09 13:57:12;;;;;;;56.30;25.43;;;;;;;-1.89;86.21;98296.45;515375;1095;104582;-44
2020/12/09 14:07:17;;;;;;;48.57;24.50;;;;;;;-1.92;86.41;98290.74;515655;1095;105024;-42
2020/12/09 14:17:22;;;;;;;49.37;25.17;;;;;;;-2.00;86.35;98299.31;515326;1095;105883;-43
2020/12/09 14:27:27;;;;;;;50.73;23.97;;;;;;;-1.99;86.28;98302.72;515468;1095;105028;-41
2020/12/09 14:37:32;;;;;;;46.33;22.17;;;;;;;-2.03;86.97;98317.77;515528;1095;104576;-43
2020/12/09 14:47:38;;;;;;;46.63;24.53;;;;;;;-2.08;86.59;98319.22;515388;1095;104564;-41
2020/12/09 14:57:44;;;;;;;114.70;42.13;;;;;;;-2.09;87.01;98325.38;515640;1095;104583;-39
2020/12/09 15:07:49;;;;;;;68.63;31.50;;;;;;;-2.07;86.35;98331.20;515256;1095;104939;-39
2020/12/09 15:17:54;;;;;;;52.77;27.20;;;;;;;-2.07;86.60;98310.48;515152;1095;104567;-40
2020/12/09 15:27:57;;;;;;;45.77;25.63;;;;;;;-2.04;86.30;98303.20;515391;1095;104599;-40
2020/12/09 15:38:03;;;;;;;46.10;24.73;;;;;;;-2.08;86.44;98308.86;515359;1095;104576;-40
2020/12/09 15:48:08;;;;;;;46.60;23.57;;;;;;;-2.11;86.90;98312.58;515347;1095;104583;-40
2020/12/09 15:58:13;;;;;;;49.77;24.40;;;;;;;-2.13;86.87;98324.84;515303;1095;104846;-41
2020/12/09 16:08:17;;;;;;;59.33;28.93;;;;;;;-2.23;87.11;98332.75;515382;1094;104577;-43
2020/12/09 16:18:23;;;;;;;60.13;26.70;;;;;;;-2.26;86.77;98332.25;515422;1095;104851;-41
2020/12/09 16:28:28;;;;;;;60.90;27.00;;;;;;;-2.22;86.67;98330.97;515303;1095;106159;-40
2020/12/09 16:38:33;;;;;;;66.50;27.53;;;;;;;-2.16;86.82;98327.75;515387;1095;104941;-40
2020/12/09 16:48:37;;;;;;;61.55;28.50;;;;;;;-2.16;87.00;98331.16;515324;1095;104747;-40
2020/12/09 16:58:43;;;;;;;59.50;26.95;;;;;;;-2.23;86.23;98322.39;515347;1095;104576;-40
2020/12/09 17:08:48;;;;;;;46.67;24.03;;;;;;;-2.32;86.69;98318.16;515221;1095;104599;-42
2020/12/09 17:18:53;;;;;;;52.87;27.13;;;;;;;-2.36;87.13;98308.27;515431;1095;104627;-40
2020/12/09 17:28:58;;;;;;;55.13;25.80;;;;;;;-2.36;86.43;98316.85;515337;1095;104576;-39
2020/12/09 17:39:02;;;;;;;53.57;24.97;;;;;;;-2.34;86.92;98316.70;515431;1095;104746;-40
2020/12/09 17:49:07;;;;;;;54.47;25.33;;;;;;;-2.34;87.03;98308.92;515481;1095;104586;-41
2020/12/09 17:59:12;;;;;;;64.90;27.73;;;;;;;-2.36;86.62;98300.51;515374;1094;105563;-40
2020/12/09 18:09:18;;;;;;;58.17;28.07;;;;;;;-2.39;86.98;98308.56;515288;1095;104574;-41
2020/12/09 18:19:23;;;;;;;43.83;23.07;;;;;;;-2.49;86.45;98306.09;515375;1095;104634;-40
2020/12/09 18:29:30;;;;;;;54.13;25.17;;;;;;;-2.60;86.87;98301.20;515490;1095;104736;-40
2020/12/09 18:39:35;;;;;;;53.97;27.57;;;;;;;-2.55;86.75;98280.84;515392;1095;104583;-40
2020/12/09 18:49:41;;;;;;;63.23;26.97;;;;;;;-2.49;87.23;98288.78;515448;1095;104916;-39
2020/12/09 18:59:46;;;;;;;53.20;24.30;;;;;;;-2.56;86.85;98282.62;515327;1095;104583;-41
2020/12/09 19:09:51;;;;;;;53.00;23.60;;;;;;;-2.61;87.11;98300.36;515862;1089;104908;-40
2020/12/09 19:19:55;;;;;;;58.90;26.10;;;;;;;-2.63;87.20;98306.66;515626;1089;104580;-42
2020/12/09 19:30:00;;;;;;;67.90;24.77;;;;;;;-2.59;87.18;98310.59;515481;1095;104589;-39
2020/12/09 19:40:09;;;;;;;66.80;30.67;;;;;;;-2.49;87.36;98313.86;515240;1095;104654;-40
2020/12/09 19:50:14;;;;;;;63.60;29.63;;;;;;;-2.44;86.73;98313.39;515317;1095;105854;-39
2020/12/09 20:10:38;;;;;;;73.15;26.55;;;;;;;-2.53;87.07;98315.14;515233;1095;104996;-40
2020/12/09 20:20:43;;;;;;;58.40;24.90;;;;;;;-2.57;87.06;98311.25;515456;1095;104964;-40
2020/12/09 20:30:48;;;;;;;55.10;22.97;;;;;;;-2.63;87.40;98306.66;515350;1095;104564;-40
2020/12/09 20:40:53;;;;;;;52.50;26.00;;;;;;;-2.57;87.12;98313.84;515258;1095;104535;-39
2020/12/09 20:50:58;;;;;;;57.57;26.63;;;;;;;-2.54;86.90;98327.28;515288;1095;104920;-41
2020/12/09 21:01:03;;;;;;;61.17;26.40;;;;;;;-2.48;86.98;98329.24;515340;1095;104640;-42
2020/12/09 21:11:08;;;;;;;55.93;25.60;;;;;;;-2.53;86.92;98325.50;515268;1095;104551;-39
2020/12/09 21:21:12;;;;;;;62.37;27.80;;;;;;;-2.50;87.72;98317.42;515416;1095;104659;-40
2020/12/09 21:31:17;;;;;;;73.70;29.37;;;;;;;-2.55;87.59;98304.95;515351;1095;104557;-39
2020/12/09 21:41:21;;;;;;;107.00;36.63;;;;;;;-2.54;87.70;98316.11;515300;1095;104590;-42
2020/12/09 21:51:26;;;;;;;55.47;23.43;;;;;;;-2.58;87.19;98288.92;515194;1095;104695;-40
2020/12/09 22:01:31;;;;;;;49.40;22.50;;;;;;;-2.60;87.17;98286.48;515320;1095;104894;-40
2020/12/09 22:11:36;;;;;;;66.03;26.33;;;;;;;-2.57;87.16;98277.59;515423;1095;104591;-42
2020/12/09 22:21:41;;;;;;;66.73;24.27;;;;;;;-2.46;87.39;98266.95;515301;1095;104554;-39
2020/12/09 22:31:45;;;;;;;58.37;25.77;;;;;;;-2.42;87.13;98251.91;515530;1095;104583;-41
2020/12/09 22:52:09;;;;;;;56.88;23.35;;;;;;;-2.55;87.54;98237.64;515360;1095;105778;-39
2020/12/09 23:02:15;;;;;;;56.93;25.17;;;;;;;-2.51;87.70;98214.84;515527;1095;104999;-39
2020/12/09 23:12:20;;;;;;;47.73;19.10;;;;;;;-2.54;87.11;98221.14;515407;1095;106059;-44
2020/12/09 23:22:26;;;;;;;59.87;23.10;;;;;;;-2.54;87.52;98191.86;515424;1095;104554;-40
2020/12/09 23:32:31;;;;;;;49.60;24.40;;;;;;;-2.52;87.96;98182.97;515299;1095;104608;-41
2020/12/09 23:42:37;;;;;;;50.20;23.93;;;;;;;-2.50;87.17;98175.04;515377;1095;104579;-41
2020/12/09 23:52:43;;;;;;;53.03;21.27;;;;;;;-2.50;87.13;98164.69;515548;1095;104942;-44
